Time;durP1;ratioP1;P1;durP2;ratioP2;P2;SDS_P1;SDS_P2;PMS_P1;PMS_P2;Temp;Humidity;BMP_temperature;BMP_pressure;BME280_temperature;BME280_humidity;BME280_pressure;Samples;Min_cycle;Max_cycle;Signal;HPM_P1;HPM_P2
2022/03/29 00:01:06;;;;;;;16.92;10.25;;;;;;;;;;5031578;28;20048;-75
2022/03/29 00:03:31;;;;;;;19.35;11.10;;;;;;;;;;5031981;28;20032;-75
2022/03/29 00:05:57;;;;;;;20.67;11.35;;;;;;;;;;5031576;28;20021;-75
2022/03/29 00:08:22;;;;;;;19.50;10.25;;;;;;;;;;5031421;28;20036;-75
2022/03/29 00:10:47;;;;;;;16.88;9.60;;;;;;;;;;5031340;28;20597;-75
2022/03/29 00:13:13;;;;;;;19.35;10.80;;;;;;;;;;5030284;28;20403;-75
2022/03/29 00:15:38;;;;;;;19.45;10.15;;;;;;;;;;5030802;28;20489;-74
2022/03/29 00:18:03;;;;;;;16.92;10.48;;;;;;;;;;5031589;28;20033;-75
2022/03/29 00:20:29;;;;;;;20.15;10.30;;;;;;;;;;5031281;28;20467;-76
2022/03/29 00:22:55;;;;;;;16.13;9.57;;;;;;;;;;5031394;28;20518;-75
2022/03/29 00:25:20;;;;;;;17.45;10.00;;;;;;;;;;5031350;28;20495;-75
2022/03/29 00:27:46;;;;;;;17.95;10.25;;;;;;;;;;5030948;28;20026;-75
2022/03/29 00:30:12;;;;;;;17.27;10.10;;;;;;;;;;5031202;28;20338;-75
2022/03/29 00:32:42;;;;;;;19.58;9.95;;;;;;;;;;5031825;28;20029;-75
2022/03/29 00:35:11;;;;;;;18.45;10.40;;;;;;;;;;5030921;28;20380;-75
2022/03/29 00:37:42;;;;;;;19.02;11.18;;;;;;;;;;5029770;28;20029;-75
2022/03/29 00:40:10;;;;;;;20.00;10.38;;;;;;;;;;5030944;28;20025;-75
2022/03/29 00:42:36;;;;;;;19.27;10.32;;;;;;;;;;5031353;28;20517;-75
2022/03/29 00:45:03;;;;;;;20.88;11.15;;;;;;;;;;5030768;28;20029;-75
2022/03/29 00:47:28;;;;;;;17.95;10.30;;;;;;;;;;5030212;28;20441;-75
2022/03/29 00:49:54;;;;;;;20.45;10.85;;;;;;;;;;5030711;28;20029;-75
2022/03/29 00:52:19;;;;;;;18.67;11.10;;;;;;;;;;5030692;28;20033;-75
2022/03/29 00:54:46;;;;;;;20.17;11.55;;;;;;;;;;5030582;28;20037;-75
2022/03/29 00:57:11;;;;;;;19.88;10.70;;;;;;;;;;5029131;28;20028;-75
2022/03/29 00:59:38;;;;;;;19.30;10.52;;;;;;;;;;5030543;28;20399;-75
2022/03/29 01:02:04;;;;;;;20.23;10.73;;;;;;;;;;5029868;28;20026;-75
2022/03/29 01:04:29;;;;;;;20.08;10.75;;;;;;;;;;5030727;28;20037;-75
2022/03/29 01:06:59;;;;;;;18.45;10.70;;;;;;;;;;5030887;28;20076;-75
2022/03/29 01:09:30;;;;;;;19.65;10.68;;;;;;;;;;5030142;28;20074;-75
2022/03/29 01:11:56;;;;;;;20.73;10.82;;;;;;;;;;5029835;28;20388;-75
2022/03/29 01:14:24;;;;;;;18.13;10.38;;;;;;;;;;5030317;28;20025;-75
2022/03/29 01:19:37;;;;;;;20.58;10.55;;;;;;;;;;5030494;28;20498;-75
2022/03/29 01:22:05;;;;;;;21.50;11.45;;;;;;;;;;5030249;28;20036;-75
2022/03/29 01:24:32;;;;;;;26.50;13.00;;;;;;;;;;5030271;28;20021;-75
2022/03/29 01:26:59;;;;;;;21.10;10.82;;;;;;;;;;5030761;28;20026;-75
2022/03/29 01:29:25;;;;;;;19.23;11.10;;;;;;;;;;5029791;28;20453;-75
2022/03/29 01:31:51;;;;;;;21.17;10.90;;;;;;;;;;5029567;28;20113;-75
2022/03/29 01:34:18;;;;;;;19.88;10.85;;;;;;;;;;5029939;28;20052;-75
2022/03/29 01:36:44;;;;;;;20.65;11.05;;;;;;;;;;5028971;28;20021;-75
2022/03/29 01:39:09;;;;;;;20.88;11.07;;;;;;;;;;5029593;28;20039;-75
2022/03/29 01:41:34;;;;;;;21.73;10.55;;;;;;;;;;5030010;28;20027;-75
2022/03/29 01:44:00;;;;;;;17.52;11.00;;;;;;;;;;5029919;28;20031;-75
2022/03/29 01:46:26;;;;;;;17.98;10.52;;;;;;;;;;5029322;28;20227;-75
2022/03/29 01:48:51;;;;;;;20.27;10.65;;;;;;;;;;5029709;28;20037;-75
2022/03/29 01:51:17;;;;;;;17.83;10.88;;;;;;;;;;5029985;28;20468;-75
2022/03/29 01:53:46;;;;;;;18.27;10.23;;;;;;;;;;5029696;28;20087;-75
2022/03/29 01:56:11;;;;;;;21.17;10.55;;;;;;;;;;5029532;28;20503;-75
2022/03/29 01:58:36;;;;;;;22.08;10.68;;;;;;;;;;5029625;28;20029;-75
2022/03/29 02:01:02;;;;;;;20.27;9.88;;;;;;;;;;5029172;28;20064;-75
2022/03/29 02:03:27;;;;;;;19.48;10.75;;;;;;;;;;5029593;28;20029;-75
2022/03/29 02:05:53;;;;;;;18.52;10.30;;;;;;;;;;5029329;28;20053;-75
2022/03/29 02:08:18;;;;;;;22.42;11.45;;;;;;;;;;5029548;28;20067;-75
2022/03/29 02:10:44;;;;;;;20.48;11.38;;;;;;;;;;5030119;28;20057;-75
2022/03/29 02:13:09;;;;;;;19.27;10.98;;;;;;;;;;5029365;28;20495;-75
2022/03/29 02:15:39;;;;;;;20.77;11.52;;;;;;;;;;5029668;28;20029;-75
2022/03/29 02:18:06;;;;;;;18.23;11.43;;;;;;;;;;5029404;28;20060;-75
2022/03/29 02:20:32;;;;;;;21.58;12.20;;;;;;;;;;5029822;28;20041;-75
2022/03/29 02:23:06;;;;;;;18.85;11.25;;;;;;;;;;5033311;28;20033;-75
2022/03/29 02:25:33;;;;;;;24.35;11.30;;;;;;;;;;5033907;28;20037;-75
2022/03/29 02:27:58;;;;;;;21.40;11.02;;;;;;;;;;5032697;28;20033;-75
2022/03/29 02:30:24;;;;;;;15.20;9.40;;;;;;;;;;5033631;28;20487;-76
2022/03/29 02:32:49;;;;;;;15.05;9.70;;;;;;;;;;5032186;28;20040;-75
2022/03/29 02:35:15;;;;;;;16.75;8.50;;;;;;;;;;5032813;28;20064;-75
2022/03/29 02:37:40;;;;;;;17.27;9.77;;;;;;;;;;5033503;28;20025;-75
2022/03/29 02:40:08;;;;;;;16.63;9.20;;;;;;;;;;5033252;28;20478;-75
2022/03/29 02:42:43;;;;;;;19.75;10.90;;;;;;;;;;5033009;28;20029;-75
2022/03/29 02:45:12;;;;;;;20.70;10.55;;;;;;;;;;5032955;28;20195;-75
2022/03/29 02:47:37;;;;;;;19.80;11.43;;;;;;;;;;5032861;28;20039;-75
2022/03/29 02:50:03;;;;;;;18.08;10.52;;;;;;;;;;5032770;28;20030;-75
2022/03/29 02:52:29;;;;;;;18.65;10.20;;;;;;;;;;5032989;28;20036;-74
2022/03/29 02:54:54;;;;;;;20.25;11.60;;;;;;;;;;5032637;28;20026;-75
2022/03/29 02:57:19;;;;;;;19.90;11.07;;;;;;;;;;5032265;28;20060;-75
2022/03/29 02:59:46;;;;;;;17.35;11.05;;;;;;;;;;5032960;28;20120;-75
2022/03/29 03:02:11;;;;;;;21.60;11.07;;;;;;;;;;5032819;28;20411;-75
2022/03/29 03:04:36;;;;;;;19.60;10.75;;;;;;;;;;5032898;28;20029;-75
2022/03/29 03:07:02;;;;;;;19.05;10.95;;;;;;;;;;5033170;28;20102;-75
2022/03/29 03:09:27;;;;;;;20.77;11.00;;;;;;;;;;5032611;28;20053;-75
2022/03/29 03:11:52;;;;;;;19.95;10.80;;;;;;;;;;5032259;28;20516;-75
2022/03/29 03:14:18;;;;;;;19.60;11.77;;;;;;;;;;5032702;28;20032;-75
2022/03/29 03:16:43;;;;;;;20.35;11.20;;;;;;;;;;5031602;28;20047;-75
2022/03/29 03:19:09;;;;;;;19.42;11.65;;;;;;;;;;5032070;28;20021;-75
2022/03/29 03:21:35;;;;;;;22.88;11.40;;;;;;;;;;5032865;28;20018;-75
2022/03/29 03:24:00;;;;;;;20.40;11.68;;;;;;;;;;5032388;28;20048;-74
2022/03/29 03:26:25;;;;;;;21.58;10.63;;;;;;;;;;5018656;28;20057;-75
2022/03/29 03:28:51;;;;;;;17.83;10.73;;;;;;;;;;5030951;28;20030;-75
2022/03/29 03:31:16;;;;;;;19.40;10.60;;;;;;;;;;5032302;28;20444;-75
2022/03/29 03:33:41;;;;;;;20.92;10.60;;;;;;;;;;5031279;28;20029;-75
2022/03/29 03:36:07;;;;;;;21.85;10.68;;;;;;;;;;5032030;28;20108;-75
2022/03/29 03:38:34;;;;;;;19.10;9.93;;;;;;;;;;5031897;28;20033;-74
2022/03/29 03:40:59;;;;;;;18.77;10.40;;;;;;;;;;5032007;28;20343;-75
2022/03/29 03:43:24;;;;;;;20.02;10.23;;;;;;;;;;5032197;28;20025;-75
2022/03/29 03:45:50;;;;;;;26.27;11.60;;;;;;;;;;5032128;28;20029;-75
2022/03/29 03:48:15;;;;;;;22.52;12.02;;;;;;;;;;5031808;28;20041;-75
2022/03/29 03:50:41;;;;;;;45.05;19.17;;;;;;;;;;5032105;28;20091;-75
2022/03/29 03:53:07;;;;;;;36.92;18.20;;;;;;;;;;5031354;28;20376;-74
2022/03/29 03:55:32;;;;;;;39.05;17.75;;;;;;;;;;5031518;28;20087;-75
2022/03/29 03:57:57;;;;;;;35.83;18.60;;;;;;;;;;5031668;28;20052;-74
2022/03/29 04:00:24;;;;;;;38.03;18.65;;;;;;;;;;5032535;28;20448;-74
2022/03/29 04:02:50;;;;;;;29.83;15.57;;;;;;;;;;5031464;28;20026;-74
2022/03/29 04:05:15;;;;;;;27.92;14.13;;;;;;;;;;5032004;28;20100;-74
2022/03/29 04:07:41;;;;;;;28.27;13.90;;;;;;;;;;5031743;28;20117;-74
2022/03/29 04:10:07;;;;;;;22.88;11.52;;;;;;;;;;5031017;28;20029;-74
2022/03/29 04:12:33;;;;;;;17.38;10.02;;;;;;;;;;5030454;28;20087;-74
2022/03/29 04:14:59;;;;;;;16.90;10.75;;;;;;;;;;5031539;28;20086;-74
2022/03/29 04:17:24;;;;;;;19.30;9.93;;;;;;;;;;5031743;28;20025;-74
2022/03/29 04:19:50;;;;;;;18.80;10.50;;;;;;;;;;5031241;28;20390;-74
2022/03/29 04:22:18;;;;;;;20.08;11.05;;;;;;;;;;5031853;28;20025;-75
2022/03/29 04:24:46;;;;;;;22.80;13.25;;;;;;;;;;5029473;28;20415;-74
2022/03/29 04:27:11;;;;;;;21.98;11.60;;;;;;;;;;5031439;28;20487;-74
2022/03/29 04:29:37;;;;;;;22.20;12.68;;;;;;;;;;5031056;28;20037;-75
2022/03/29 04:32:02;;;;;;;25.08;13.27;;;;;;;;;;5031473;28;20037;-75
2022/03/29 04:34:28;;;;;;;24.65;13.00;;;;;;;;;;5030948;28;20065;-74
2022/03/29 04:36:53;;;;;;;23.60;13.07;;;;;;;;;;5031418;28;20024;-74
2022/03/29 04:39:18;;;;;;;22.25;12.55;;;;;;;;;;5030749;28;20029;-75
2022/03/29 04:41:44;;;;;;;23.95;13.32;;;;;;;;;;5031105;28;20022;-75
2022/03/29 04:44:09;;;;;;;26.80;13.90;;;;;;;;;;5030754;28;20108;-75
2022/03/29 04:46:34;;;;;;;25.65;13.55;;;;;;;;;;5030680;28;20034;-75
2022/03/29 04:49:00;;;;;;;23.38;12.50;;;;;;;;;;5030569;28;20045;-74
2022/03/29 04:51:25;;;;;;;27.23;12.82;;;;;;;;;;5029454;28;20116;-75
2022/03/29 04:53:50;;;;;;;23.48;12.40;;;;;;;;;;5030152;28;20390;-75
2022/03/29 04:56:15;;;;;;;21.40;11.93;;;;;;;;;;5030815;28;20025;-74
2022/03/29 04:58:41;;;;;;;24.50;12.68;;;;;;;;;;5030358;28;20052;-74
2022/03/29 05:01:06;;;;;;;26.42;13.57;;;;;;;;;;5030549;28;20014;-74
2022/03/29 05:03:32;;;;;;;27.67;13.82;;;;;;;;;;5030433;28;20037;-74
2022/03/29 05:05:57;;;;;;;27.83;14.45;;;;;;;;;;5030750;28;20037;-74
2022/03/29 05:08:23;;;;;;;26.90;15.93;;;;;;;;;;5030530;28;20394;-75
2022/03/29 05:10:48;;;;;;;31.10;19.02;;;;;;;;;;5030264;28;20025;-75
2022/03/29 05:13:15;;;;;;;32.60;18.52;;;;;;;;;;5030462;28;20033;-75
2022/03/29 05:15:40;;;;;;;32.67;18.05;;;;;;;;;;5030490;28;20430;-75
2022/03/29 05:18:06;;;;;;;30.60;16.75;;;;;;;;;;5030109;28;20037;-75
2022/03/29 05:20:31;;;;;;;28.38;15.20;;;;;;;;;;5030218;28;20033;-75
2022/03/29 05:22:56;;;;;;;26.05;14.85;;;;;;;;;;5029987;28;20051;-75
2022/03/29 05:25:24;;;;;;;28.40;15.15;;;;;;;;;;5028329;28;20075;-74
2022/03/29 05:27:51;;;;;;;24.98;14.40;;;;;;;;;;5028208;28;20056;-75
2022/03/29 05:30:17;;;;;;;25.75;13.70;;;;;;;;;;5029487;28;20514;-74
2022/03/29 05:32:43;;;;;;;33.10;15.40;;;;;;;;;;5030459;28;20443;-74
2022/03/29 05:35:09;;;;;;;27.05;15.52;;;;;;;;;;5029975;28;20025;-74
2022/03/29 05:37:39;;;;;;;25.45;13.43;;;;;;;;;;5029784;28;20113;-74
2022/03/29 05:40:09;;;;;;;30.63;15.07;;;;;;;;;;5022986;28;20453;-75
2022/03/29 05:42:42;;;;;;;31.05;14.50;;;;;;;;;;5023423;28;20372;-74
2022/03/29 05:45:09;;;;;;;28.23;15.43;;;;;;;;;;5026300;28;20554;-74
2022/03/29 05:50:18;;;;;;;21.40;12.57;;;;;;;;;;5029470;28;20095;-74
2022/03/29 05:52:44;;;;;;;21.17;10.98;;;;;;;;;;5029782;28;20029;-74
2022/03/29 05:55:09;;;;;;;20.90;11.80;;;;;;;;;;5029544;28;20391;-73
2022/03/29 05:57:35;;;;;;;20.58;10.73;;;;;;;;;;5035697;28;20031;-74
2022/03/29 06:00:00;;;;;;;20.70;10.70;;;;;;;;;;5017509;28;20031;-74
2022/03/29 06:02:26;;;;;;;24.63;11.43;;;;;;;;;;5029489;28;20033;-75
2022/03/29 06:04:51;;;;;;;23.92;11.20;;;;;;;;;;5029009;28;20033;-74
2022/03/29 06:07:17;;;;;;;21.02;11.25;;;;;;;;;;5022495;28;20087;-74
2022/03/29 06:09:43;;;;;;;19.88;11.60;;;;;;;;;;5019649;28;20033;-76
2022/03/29 06:12:08;;;;;;;21.83;10.85;;;;;;;;;;5024683;28;20029;-76
2022/03/29 06:14:34;;;;;;;23.08;13.20;;;;;;;;;;5025860;28;20342;-76
2022/03/29 06:17:00;;;;;;;25.83;13.13;;;;;;;;;;5025579;28;20029;-75
2022/03/29 06:19:25;;;;;;;29.40;15.50;;;;;;;;;;5025011;28;20625;-75
2022/03/29 06:21:51;;;;;;;29.00;14.52;;;;;;;;;;5025452;28;20029;-77
2022/03/29 06:24:16;;;;;;;21.83;12.93;;;;;;;;;;5024063;28;20364;-76
2022/03/29 06:26:41;;;;;;;29.17;13.85;;;;;;;;;;5025085;28;20028;-75
2022/03/29 06:29:08;;;;;;;20.77;11.98;;;;;;;;;;5024470;28;20021;-76
2022/03/29 06:31:34;;;;;;;20.50;11.55;;;;;;;;;;5021429;28;20033;-76
2022/03/29 06:33:59;;;;;;;19.88;12.45;;;;;;;;;;5022287;28;20050;-77
2022/03/29 06:36:25;;;;;;;21.45;11.98;;;;;;;;;;5024029;28;20349;-76
2022/03/29 06:38:51;;;;;;;18.27;11.32;;;;;;;;;;5024704;28;20040;-75
2022/03/29 06:41:16;;;;;;;20.77;11.65;;;;;;;;;;5025408;28;20028;-74
2022/03/29 06:43:41;;;;;;;28.65;15.25;;;;;;;;;;5024586;28;20033;-75
2022/03/29 06:46:09;;;;;;;30.55;20.42;;;;;;;;;;5025065;28;20531;-75
2022/03/29 06:48:35;;;;;;;21.83;12.90;;;;;;;;;;5023043;28;20017;-75
2022/03/29 06:51:01;;;;;;;26.52;14.00;;;;;;;;;;5024096;28;20044;-74
2022/03/29 06:53:26;;;;;;;22.67;12.63;;;;;;;;;;5024790;28;20041;-75
2022/03/29 06:55:52;;;;;;;22.63;12.38;;;;;;;;;;5026745;28;20018;-75
2022/03/29 06:58:17;;;;;;;23.83;12.98;;;;;;;;;;5024339;28;20036;-76
2022/03/29 07:00:43;;;;;;;21.83;13.30;;;;;;;;;;5026464;28;20032;-76
2022/03/29 07:03:09;;;;;;;24.20;13.82;;;;;;;;;;5022973;28;20041;-76
2022/03/29 07:05:38;;;;;;;19.70;11.88;;;;;;;;;;5023875;28;20033;-77
2022/03/29 07:08:06;;;;;;;23.00;13.13;;;;;;;;;;5024953;28;20507;-77
2022/03/29 07:13:16;;;;;;;24.13;13.70;;;;;;;;;;5028748;28;20593;-76
2022/03/29 07:15:42;;;;;;;26.08;15.65;;;;;;;;;;5027087;28;20112;-76
2022/03/29 07:18:07;;;;;;;27.27;15.10;;;;;;;;;;5025690;28;20025;-76
2022/03/29 07:20:33;;;;;;;30.60;15.52;;;;;;;;;;5029569;28;20029;-77
2022/03/29 07:22:59;;;;;;;35.33;15.57;;;;;;;;;;5028474;28;20022;-76
2022/03/29 07:25:26;;;;;;;29.67;15.02;;;;;;;;;;5028664;28;20407;-76
2022/03/29 07:27:53;;;;;;;28.17;15.77;;;;;;;;;;5022650;28;20037;-76
2022/03/29 07:30:20;;;;;;;34.90;15.93;;;;;;;;;;5027273;28;20045;-76
2022/03/29 07:32:50;;;;;;;27.55;15.68;;;;;;;;;;5027465;28;20025;-76
2022/03/29 07:35:17;;;;;;;28.20;15.20;;;;;;;;;;5027645;28;20039;-76
2022/03/29 07:37:43;;;;;;;28.48;16.27;;;;;;;;;;5026945;28;20028;-75
2022/03/29 07:40:10;;;;;;;24.00;14.77;;;;;;;;;;5027654;28;20017;-74
2022/03/29 07:42:36;;;;;;;29.55;14.52;;;;;;;;;;5028868;28;20017;-75
2022/03/29 07:45:03;;;;;;;27.42;14.88;;;;;;;;;;5027430;28;20037;-76
2022/03/29 07:47:29;;;;;;;23.02;12.77;;;;;;;;;;5027478;28;20533;-76
2022/03/29 07:49:55;;;;;;;22.30;13.02;;;;;;;;;;5027713;28;20479;-74
2022/03/29 07:52:20;;;;;;;20.73;12.20;;;;;;;;;;5019698;28;20038;-75
2022/03/29 07:54:46;;;;;;;22.80;13.68;;;;;;;;;;5027553;28;20036;-76
2022/03/29 07:57:11;;;;;;;25.13;13.13;;;;;;;;;;5027763;28;20014;-75
2022/03/29 07:59:37;;;;;;;23.38;13.25;;;;;;;;;;5027726;28;20116;-75
2022/03/29 08:02:04;;;;;;;23.67;13.98;;;;;;;;;;5026706;28;20033;-75
2022/03/29 08:04:29;;;;;;;21.80;13.27;;;;;;;;;;5026549;28;20029;-76
2022/03/29 08:06:54;;;;;;;20.85;13.50;;;;;;;;;;5028578;28;20044;-76
2022/03/29 08:09:19;;;;;;;24.90;14.10;;;;;;;;;;5031281;28;20034;-74
2022/03/29 08:11:45;;;;;;;21.45;13.77;;;;;;;;;;5030526;28;20021;-76
2022/03/29 08:14:12;;;;;;;22.60;14.27;;;;;;;;;;5046760;28;20391;-75
2022/03/29 08:16:38;;;;;;;20.38;13.23;;;;;;;;;;5027568;28;20037;-76
2022/03/29 08:19:03;;;;;;;22.27;13.70;;;;;;;;;;5026922;28;20021;-76
2022/03/29 08:24:12;;;;;;;25.63;14.32;;;;;;;;;;5025382;28;20099;-75
2022/03/29 08:26:37;;;;;;;25.30;13.20;;;;;;;;;;5027652;28;20463;-76
2022/03/29 08:29:03;;;;;;;23.52;13.90;;;;;;;;;;5020720;28;20032;-76
2022/03/29 08:31:28;;;;;;;24.45;14.80;;;;;;;;;;5026189;28;20301;-75
2022/03/29 08:33:53;;;;;;;27.08;14.60;;;;;;;;;;5026676;28;20036;-75
2022/03/29 08:36:19;;;;;;;24.75;15.05;;;;;;;;;;5025183;28;20144;-75
2022/03/29 08:38:44;;;;;;;25.63;14.30;;;;;;;;;;5025627;28;20037;-75
2022/03/29 08:41:09;;;;;;;22.75;15.13;;;;;;;;;;5026688;28;20175;-77
2022/03/29 08:43:35;;;;;;;24.92;15.75;;;;;;;;;;5026420;28;20029;-77
2022/03/29 08:46:00;;;;;;;30.90;16.75;;;;;;;;;;5028118;28;20479;-77
2022/03/29 08:48:27;;;;;;;25.23;14.95;;;;;;;;;;5026299;28;20037;-75
2022/03/29 08:50:57;;;;;;;28.77;16.27;;;;;;;;;;5019952;28;20037;-80
2022/03/29 08:53:23;;;;;;;29.95;16.70;;;;;;;;;;5026109;28;20445;-76
2022/03/29 08:55:48;;;;;;;28.85;16.60;;;;;;;;;;5026001;28;20405;-75
2022/03/29 08:58:21;;;;;;;32.25;16.55;;;;;;;;;;5027044;28;20048;-76
2022/03/29 09:00:48;;;;;;;31.35;18.25;;;;;;;;;;5025153;28;20025;-75
2022/03/29 09:03:15;;;;;;;30.02;16.48;;;;;;;;;;5026339;28;20071;-75
2022/03/29 09:05:40;;;;;;;27.20;16.73;;;;;;;;;;5026230;28;20120;-76
2022/03/29 09:08:09;;;;;;;30.55;17.90;;;;;;;;;;5024681;28;20442;-74
2022/03/29 09:10:48;;;;;;;34.05;18.42;;;;;;;;;;5025031;28;20025;-76
2022/03/29 09:13:19;;;;;;;32.40;19.15;;;;;;;;;;5024524;28;20450;-75
2022/03/29 09:15:47;;;;;;;28.58;17.40;;;;;;;;;;5020364;28;20028;-77
2022/03/29 09:18:13;;;;;;;31.92;18.45;;;;;;;;;;5021481;28;20036;-73
2022/03/29 09:20:38;;;;;;;32.90;20.10;;;;;;;;;;5024602;28;20080;-75
2022/03/29 09:23:05;;;;;;;34.60;20.48;;;;;;;;;;5020939;28;20033;-75
2022/03/29 09:25:36;;;;;;;34.90;20.45;;;;;;;;;;5021789;28;20068;-71
2022/03/29 09:28:10;;;;;;;38.63;22.08;;;;;;;;;;5023766;28;20076;-76
2022/03/29 09:30:53;;;;;;;34.72;21.02;;;;;;;;;;5023449;28;20322;-74
2022/03/29 09:33:31;;;;;;;39.53;22.15;;;;;;;;;;5021388;28;20048;-76
2022/03/29 09:36:03;;;;;;;36.42;21.98;;;;;;;;;;5024584;28;20412;-75
2022/03/29 09:38:37;;;;;;;36.95;20.88;;;;;;;;;;5021423;28;20029;-75
2022/03/29 09:41:05;;;;;;;35.55;20.77;;;;;;;;;;5021875;28;20116;-75
2022/03/29 09:43:31;;;;;;;31.85;19.20;;;;;;;;;;5020672;28;20025;-73
2022/03/29 09:46:02;;;;;;;41.78;22.25;;;;;;;;;;5023865;28;20040;-75
2022/03/29 09:48:28;;;;;;;31.90;20.40;;;;;;;;;;5022547;28;20037;-75
2022/03/29 09:51:00;;;;;;;37.45;21.05;;;;;;;;;;5022494;28;20032;-75
2022/03/29 09:53:44;;;;;;;36.75;22.05;;;;;;;;;;5022780;28;20032;-76
2022/03/29 09:56:12;;;;;;;38.90;22.02;;;;;;;;;;5022077;28;20188;-75
2022/03/29 09:58:39;;;;;;;39.60;22.20;;;;;;;;;;5020397;28;20499;-76
2022/03/29 10:01:05;;;;;;;36.15;21.52;;;;;;;;;;5018982;28;20040;-74
2022/03/29 10:03:35;;;;;;;31.15;20.02;;;;;;;;;;5020554;28;20117;-75
2022/03/29 10:06:05;;;;;;;32.15;18.38;;;;;;;;;;5021693;28;20591;-76
2022/03/29 10:11:22;;;;;;;31.17;19.15;;;;;;;;;;5020180;28;20053;-75
2022/03/29 10:13:48;;;;;;;34.90;21.63;;;;;;;;;;5019106;28;20235;-74
2022/03/29 10:16:16;;;;;;;33.10;19.73;;;;;;;;;;5025045;28;20117;-74
2022/03/29 10:18:43;;;;;;;34.85;21.60;;;;;;;;;;5027150;28;20032;-74
2022/03/29 10:21:14;;;;;;;33.53;20.05;;;;;;;;;;5029440;28;20066;-75
2022/03/29 10:23:43;;;;;;;34.38;21.17;;;;;;;;;;5027945;28;20033;-73
2022/03/29 10:26:09;;;;;;;31.35;20.92;;;;;;;;;;5029742;28;20033;-74
2022/03/29 10:28:35;;;;;;;36.72;20.70;;;;;;;;;;5031678;28;20455;-72
2022/03/29 10:31:01;;;;;;;30.50;20.10;;;;;;;;;;5032501;28;20124;-75
2022/03/29 10:33:29;;;;;;;34.40;21.15;;;;;;;;;;5029275;28;20036;-71
2022/03/29 10:36:12;;;;;;;36.47;20.63;;;;;;;;;;5029279;28;20569;-76
2022/03/29 10:38:44;;;;;;;34.88;19.08;;;;;;;;;;5029274;28;20409;-74
2022/03/29 10:41:28;;;;;;;36.92;20.58;;;;;;;;;;5028546;28;20626;-73
2022/03/29 10:44:08;;;;;;;32.42;19.58;;;;;;;;;;5031669;28;20033;-75
2022/03/29 10:46:36;;;;;;;33.25;19.50;;;;;;;;;;5025824;28;20268;-76
2022/03/29 10:49:31;;;;;;;28.50;19.50;;;;;;;;;;5030656;28;20087;-74
2022/03/29 10:51:57;;;;;;;33.78;19.77;;;;;;;;;;5031422;28;20084;-78
2022/03/29 10:54:31;;;;;;;31.63;20.20;;;;;;;;;;5032289;28;20112;-76
2022/03/29 10:57:03;;;;;;;31.92;19.85;;;;;;;;;;5031856;28;20127;-76
2022/03/29 10:59:30;;;;;;;34.53;21.13;;;;;;;;;;5032461;28;20034;-75
2022/03/29 11:02:16;;;;;;;31.20;19.15;;;;;;;;;;5032741;28;20068;-76
2022/03/29 11:05:12;;;;;;;34.00;19.10;;;;;;;;;;5033178;28;20017;-75
2022/03/29 11:07:52;;;;;;;38.17;21.15;;;;;;;;;;5033835;28;20432;-77
2022/03/29 11:10:37;;;;;;;35.67;20.67;;;;;;;;;;5032436;28;20052;-71
2022/03/29 11:13:42;;;;;;;36.90;21.40;;;;;;;;;;5032675;28;20433;-77
2022/03/29 11:16:28;;;;;;;29.15;19.52;;;;;;;;;;5031876;28;20038;-75
2022/03/29 11:18:53;;;;;;;31.23;19.42;;;;;;;;;;5031995;28;20026;-75
2022/03/29 11:21:39;;;;;;;35.97;20.83;;;;;;;;;;5032409;28;20300;-74
2022/03/29 11:24:07;;;;;;;34.60;21.13;;;;;;;;;;5022383;28;20036;-73
2022/03/29 11:26:35;;;;;;;32.40;21.35;;;;;;;;;;5032822;28;20036;-76
2022/03/29 11:29:02;;;;;;;35.50;20.27;;;;;;;;;;5032824;28;20033;-75
2022/03/29 11:31:38;;;;;;;37.15;21.13;;;;;;;;;;5032369;28;20025;-75
2022/03/29 11:34:05;;;;;;;39.15;21.80;;;;;;;;;;5031316;28;20112;-75
2022/03/29 11:36:32;;;;;;;36.15;21.70;;;;;;;;;;5012979;28;20037;-78
2022/03/29 11:38:58;;;;;;;36.55;20.17;;;;;;;;;;5029125;28;20549;-76
2022/03/29 11:41:28;;;;;;;37.80;22.17;;;;;;;;;;5032848;28;20476;-77
2022/03/29 11:43:59;;;;;;;38.63;23.33;;;;;;;;;;5032220;28;20056;-74
2022/03/29 11:46:42;;;;;;;35.90;22.00;;;;;;;;;;5032523;28;20095;-75
2022/03/29 11:49:07;;;;;;;;;;;;;;;;;;5032396;28;20155;-75
2022/03/29 11:51:33;;;;;;;36.92;22.52;;;;;;;;;;5031189;28;20258;-74
2022/03/29 11:53:58;;;;;;;33.47;17.98;;;;;;;;;;5030308;28;20038;-74
2022/03/29 11:56:24;;;;;;;43.53;21.38;;;;;;;;;;5031708;28;20032;-75
2022/03/29 11:58:55;;;;;;;40.63;25.17;;;;;;;;;;5029915;28;20487;-74
2022/03/29 12:01:27;;;;;;;33.13;19.38;;;;;;;;;;5023963;28;20097;-74
2022/03/29 12:03:55;;;;;;;37.38;22.60;;;;;;;;;;5022178;28;20021;-74
2022/03/29 12:06:25;;;;;;;37.13;21.85;;;;;;;;;;5031532;28;20097;-73
2022/03/29 12:08:52;;;;;;;33.08;19.77;;;;;;;;;;5031264;28;20029;-76
2022/03/29 12:11:20;;;;;;;34.35;20.60;;;;;;;;;;5032161;28;20026;-75
2022/03/29 12:13:47;;;;;;;34.92;20.77;;;;;;;;;;5021490;28;20033;-73
2022/03/29 12:16:22;;;;;;;39.58;21.02;;;;;;;;;;5028793;28;20483;-75
2022/03/29 12:18:49;;;;;;;35.88;19.83;;;;;;;;;;5030730;28;20046;-75
2022/03/29 12:21:15;;;;;;;37.35;22.08;;;;;;;;;;5032290;28;20060;-74
2022/03/29 12:23:42;;;;;;;34.05;19.30;;;;;;;;;;5031808;28;20034;-76
2022/03/29 12:26:09;;;;;;;32.17;20.30;;;;;;;;;;5032247;28;20443;-77
2022/03/29 12:28:37;;;;;;;39.33;20.83;;;;;;;;;;5031696;28;20412;-76
2022/03/29 12:31:02;;;;;;;35.78;20.50;;;;;;;;;;5032106;28;20017;-76
2022/03/29 12:33:31;;;;;;;32.42;20.27;;;;;;;;;;5032079;28;20025;-77
2022/03/29 12:36:07;;;;;;;36.60;21.10;;;;;;;;;;5030813;28;20063;-77
2022/03/29 12:38:44;;;;;;;34.30;20.58;;;;;;;;;;5030936;28;20029;-75
2022/03/29 12:41:12;;;;;;;37.88;20.90;;;;;;;;;;5032035;28;20356;-77
2022/03/29 12:43:52;;;;;;;33.13;20.98;;;;;;;;;;5037314;28;20021;-77
2022/03/29 12:46:17;;;;;;;32.63;19.23;;;;;;;;;;5032896;28;20680;-78
2022/03/29 12:48:48;;;;;;;35.40;19.02;;;;;;;;;;5029783;28;20132;-76
2022/03/29 12:51:14;;;;;;;33.58;19.98;;;;;;;;;;5031953;28;20025;-77
2022/03/29 12:53:39;;;;;;;35.63;21.00;;;;;;;;;;5031379;28;20036;-76
2022/03/29 12:56:09;;;;;;;33.22;20.27;;;;;;;;;;5034439;28;20510;-77
2022/03/29 12:58:36;;;;;;;34.05;20.38;;;;;;;;;;5030910;28;20542;-75
2022/03/29 13:01:04;;;;;;;34.75;20.42;;;;;;;;;;5030677;28;20105;-76
2022/03/29 13:03:45;;;;;;;36.75;20.40;;;;;;;;;;5031270;28;20514;-77
2022/03/29 13:06:11;;;;;;;33.60;19.48;;;;;;;;;;5029020;28;20051;-75
2022/03/29 13:08:36;;;;;;;33.13;19.45;;;;;;;;;;5030942;28;20037;-75
2022/03/29 13:11:16;;;;;;;32.28;18.25;;;;;;;;;;5028713;28;20146;-76
2022/03/29 13:13:42;;;;;;;35.67;20.00;;;;;;;;;;5030240;28;20118;-76
2022/03/29 13:16:19;;;;;;;28.02;17.67;;;;;;;;;;5029281;28;20445;-77
2022/03/29 13:18:44;;;;;;;37.47;18.73;;;;;;;;;;5030771;28;20117;-76
2022/03/29 13:21:32;;;;;;;32.10;19.45;;;;;;;;;;5030752;28;20438;-74
2022/03/29 13:23:57;;;;;;;33.58;17.90;;;;;;;;;;5031330;28;20036;-76
2022/03/29 13:26:28;;;;;;;34.27;18.70;;;;;;;;;;5032372;28;20403;-78
2022/03/29 13:28:55;;;;;;;32.58;18.67;;;;;;;;;;5031129;28;20755;-77
2022/03/29 13:31:22;;;;;;;32.70;18.75;;;;;;;;;;5031494;28;20032;-77
2022/03/29 13:33:49;;;;;;;34.25;17.60;;;;;;;;;;5033067;28;20251;-76
2022/03/29 13:36:17;;;;;;;27.95;17.65;;;;;;;;;;5031682;28;20055;-77
2022/03/29 13:38:45;;;;;;;31.67;17.45;;;;;;;;;;5031798;28;20021;-79
2022/03/29 13:41:11;;;;;;;30.63;17.65;;;;;;;;;;5031589;28;20039;-78
2022/03/29 13:43:37;;;;;;;32.75;18.02;;;;;;;;;;5030843;28;20071;-78
2022/03/29 13:46:04;;;;;;;32.83;16.55;;;;;;;;;;5032689;28;20510;-77
2022/03/29 13:48:30;;;;;;;26.35;15.90;;;;;;;;;;5032696;28;20022;-77
2022/03/29 13:51:07;;;;;;;25.30;15.15;;;;;;;;;;5033649;28;20040;-78
2022/03/29 13:53:33;;;;;;;33.38;18.00;;;;;;;;;;5032230;28;20037;-76
2022/03/29 13:55:59;;;;;;;31.60;18.17;;;;;;;;;;5032368;28;20036;-79
2022/03/29 13:58:25;;;;;;;31.58;17.98;;;;;;;;;;5030586;28;20470;-78
2022/03/29 14:00:51;;;;;;;31.00;16.42;;;;;;;;;;5031078;28;20036;-77
2022/03/29 14:03:17;;;;;;;26.02;16.33;;;;;;;;;;5031465;28;20071;-77
2022/03/29 14:05:44;;;;;;;29.40;15.98;;;;;;;;;;5031449;28;20430;-77
2022/03/29 14:08:12;;;;;;;27.27;17.02;;;;;;;;;;5032237;28;20029;-79
2022/03/29 14:10:38;;;;;;;26.83;16.60;;;;;;;;;;5033159;28;20033;-78
2022/03/29 14:13:05;;;;;;;27.83;16.48;;;;;;;;;;5030484;28;20032;-78
2022/03/29 14:15:31;;;;;;;28.92;17.73;;;;;;;;;;5031432;28;20467;-77
2022/03/29 14:17:57;;;;;;;30.65;15.55;;;;;;;;;;5031632;28;20540;-76
2022/03/29 14:20:24;;;;;;;29.88;16.15;;;;;;;;;;5034856;28;20025;-77
2022/03/29 14:22:49;;;;;;;26.02;16.20;;;;;;;;;;5033250;28;20662;-76
2022/03/29 14:25:16;;;;;;;29.70;17.90;;;;;;;;;;5033655;28;20033;-75
2022/03/29 14:27:42;;;;;;;27.08;14.85;;;;;;;;;;5033320;28;20033;-74
2022/03/29 14:30:09;;;;;;;24.30;14.23;;;;;;;;;;5033364;28;20021;-75
2022/03/29 14:32:34;;;;;;;26.48;13.57;;;;;;;;;;5033200;28;20025;-76
2022/03/29 14:35:05;;;;;;;21.25;12.48;;;;;;;;;;5034056;28;20390;-75